sensor_id;sensor_type;location;lat;lon;timestamp;P1;durP1;ratioP1;P2;durP2;ratioP2
42754;SDS011;28407;51.830;5.684;2023-02-15T00:00:03;12.10;;;10.10;;
42754;SDS011;28407;51.830;5.684;2023-02-15T00:02:05;13.15;;;10.25;;
42754;SDS011;28407;51.830;5.684;2023-02-15T00:04:06;14.55;;;10.73;;
42754;SDS011;28407;51.830;5.684;2023-02-15T00:08:08;11.93;;;10.00;;
42754;SDS011;28407;51.830;5.684;2023-02-15T00:10:09;15.15;;;10.73;;
42754;SDS011;28407;51.830;5.684;2023-02-15T00:12:11;16.08;;;11.25;;
42754;SDS011;28407;51.830;5.684;2023-02-15T00:14:16;12.95;;;11.50;;
42754;SDS011;28407;51.830;5.684;2023-02-15T00:16:21;14.73;;;11.07;;
42754;SDS011;28407;51.830;5.684;2023-02-15T00:18:21;14.07;;;10.45;;
42754;SDS011;28407;51.830;5.684;2023-02-15T00:20:22;14.40;;;10.25;;
42754;SDS011;28407;51.830;5.684;2023-02-15T00:22:22;15.43;;;11.48;;
42754;SDS011;28407;51.830;5.684;2023-02-15T00:24:23;16.40;;;11.18;;
42754;SDS011;28407;51.830;5.684;2023-02-15T00:26:24;15.07;;;11.90;;
42754;SDS011;28407;51.830;5.684;2023-02-15T00:28:25;17.43;;;12.13;;
42754;SDS011;28407;51.830;5.684;2023-02-15T00:30:27;15.55;;;11.73;;
42754;SDS011;28407;51.830;5.684;2023-02-15T00:32:27;14.15;;;11.73;;
42754;SDS011;28407;51.830;5.684;2023-02-15T00:34:28;13.98;;;10.93;;
42754;SDS011;28407;51.830;5.684;2023-02-15T00:36:30;15.88;;;12.35;;
42754;SDS011;28407;51.830;5.684;2023-02-15T00:38:31;15.90;;;11.75;;
42754;SDS011;28407;51.830;5.684;2023-02-15T00:40:32;18.50;;;13.70;;
42754;SDS011;28407;51.830;5.684;2023-02-15T00:42:33;17.52;;;13.38;;
42754;SDS011;28407;51.830;5.684;2023-02-15T00:44:34;17.98;;;13.05;;
42754;SDS011;28407;51.830;5.684;2023-02-15T00:46:34;19.67;;;14.45;;
42754;SDS011;28407;51.830;5.684;2023-02-15T00:48:35;17.50;;;12.67;;
42754;SDS011;28407;51.830;5.684;2023-02-15T00:50:37;16.73;;;14.07;;
42754;SDS011;28407;51.830;5.684;2023-02-15T00:52:38;19.23;;;13.27;;
42754;SDS011;28407;51.830;5.684;2023-02-15T00:54:38;17.05;;;12.98;;
42754;SDS011;28407;51.830;5.684;2023-02-15T00:56:39;17.23;;;13.18;;
42754;SDS011;28407;51.830;5.684;2023-02-15T00:58:40;16.73;;;12.75;;
42754;SDS011;28407;51.830;5.684;2023-02-15T01:00:45;17.20;;;12.32;;
42754;SDS011;28407;51.830;5.684;2023-02-15T01:02:46;16.48;;;12.80;;
42754;SDS011;28407;51.830;5.684;2023-02-15T01:04:48;16.23;;;12.02;;
42754;SDS011;28407;51.830;5.684;2023-02-15T01:06:49;17.80;;;12.95;;
42754;SDS011;28407;51.830;5.684;2023-02-15T01:08:50;17.88;;;12.35;;
42754;SDS011;28407;51.830;5.684;2023-02-15T01:10:51;15.50;;;12.20;;
42754;SDS011;28407;51.830;5.684;2023-02-15T01:12:52;15.98;;;11.98;;
42754;SDS011;28407;51.830;5.684;2023-02-15T01:14:53;17.75;;;13.27;;
42754;SDS011;28407;51.830;5.684;2023-02-15T01:16:54;15.02;;;12.45;;
42754;SDS011;28407;51.830;5.684;2023-02-15T01:18:54;20.17;;;14.55;;
42754;SDS011;28407;51.830;5.684;2023-02-15T01:20:55;15.20;;;11.83;;
42754;SDS011;28407;51.830;5.684;2023-02-15T01:22:56;15.93;;;12.15;;
42754;SDS011;28407;51.830;5.684;2023-02-15T01:24:57;19.67;;;13.35;;
42754;SDS011;28407;51.830;5.684;2023-02-15T01:26:58;15.10;;;11.45;;
42754;SDS011;28407;51.830;5.684;2023-02-15T01:29:00;18.73;;;13.93;;
42754;SDS011;28407;51.830;5.684;2023-02-15T01:31:19;17.67;;;12.43;;
42754;SDS011;28407;51.830;5.684;2023-02-15T01:33:20;13.68;;;11.45;;
42754;SDS011;28407;51.830;5.684;2023-02-15T01:35:21;17.30;;;11.98;;
42754;SDS011;28407;51.830;5.684;2023-02-15T01:37:21;15.35;;;11.32;;
42754;SDS011;28407;51.830;5.684;2023-02-15T01:39:22;14.70;;;11.05;;
42754;SDS011;28407;51.830;5.684;2023-02-15T01:41:24;13.82;;;11.80;;
42754;SDS011;28407;51.830;5.684;2023-02-15T01:43:43;14.32;;;11.57;;
42754;SDS011;28407;51.830;5.684;2023-02-15T01:45:46;18.50;;;12.90;;
42754;SDS011;28407;51.830;5.684;2023-02-15T01:50:07;15.68;;;11.80;;
42754;SDS011;28407;51.830;5.684;2023-02-15T01:52:09;15.50;;;11.40;;
42754;SDS011;28407;51.830;5.684;2023-02-15T01:54:21;12.70;;;10.30;;
42754;SDS011;28407;51.830;5.684;2023-02-15T01:56:29;15.02;;;12.15;;
42754;SDS011;28407;51.830;5.684;2023-02-15T01:58:33;17.73;;;11.73;;
42754;SDS011;28407;51.830;5.684;2023-02-15T02:00:35;18.92;;;13.55;;
42754;SDS011;28407;51.830;5.684;2023-02-15T02:02:35;18.02;;;12.93;;
42754;SDS011;28407;51.830;5.684;2023-02-15T02:04:41;17.35;;;12.90;;
42754;SDS011;28407;51.830;5.684;2023-02-15T02:06:46;15.55;;;11.15;;
42754;SDS011;28407;51.830;5.684;2023-02-15T02:08:48;16.42;;;11.95;;
42754;SDS011;28407;51.830;5.684;2023-02-15T02:10:49;17.42;;;11.15;;
42754;SDS011;28407;51.830;5.684;2023-02-15T02:12:51;14.18;;;11.55;;
42754;SDS011;28407;51.830;5.684;2023-02-15T02:14:54;15.50;;;11.40;;
42754;SDS011;28407;51.830;5.684;2023-02-15T02:19:54;13.98;;;10.18;;
42754;SDS011;28407;51.830;5.684;2023-02-15T02:22:08;14.63;;;10.57;;
42754;SDS011;28407;51.830;5.684;2023-02-15T02:24:26;15.85;;;12.60;;
42754;SDS011;28407;51.830;5.684;2023-02-15T02:34:36;16.63;;;12.40;;
42754;SDS011;28407;51.830;5.684;2023-02-15T02:39:02;16.27;;;11.82;;
42754;SDS011;28407;51.830;5.684;2023-02-15T02:46:15;13.93;;;10.52;;
42754;SDS011;28407;51.830;5.684;2023-02-15T02:48:22;13.30;;;10.60;;
42754;SDS011;28407;51.830;5.684;2023-02-15T02:50:26;15.50;;;10.82;;
42754;SDS011;28407;51.830;5.684;2023-02-15T02:54:36;17.13;;;10.95;;
42754;SDS011;28407;51.830;5.684;2023-02-15T02:56:37;15.27;;;11.30;;
42754;SDS011;28407;51.830;5.684;2023-02-15T02:58:44;15.48;;;10.98;;
42754;SDS011;28407;51.830;5.684;2023-02-15T03:00:56;15.68;;;11.80;;
42754;SDS011;28407;51.830;5.684;2023-02-15T03:03:03;16.88;;;11.15;;
42754;SDS011;28407;51.830;5.684;2023-02-15T03:05:09;16.83;;;11.95;;
42754;SDS011;28407;51.830;5.684;2023-02-15T03:07:16;15.70;;;10.90;;
42754;SDS011;28407;51.830;5.684;2023-02-15T03:09:27;13.60;;;11.50;;
42754;SDS011;28407;51.830;5.684;2023-02-15T03:11:48;15.93;;;10.45;;
42754;SDS011;28407;51.830;5.684;2023-02-15T03:13:49;14.83;;;9.77;;
42754;SDS011;28407;51.830;5.684;2023-02-15T03:15:50;13.30;;;10.05;;
42754;SDS011;28407;51.830;5.684;2023-02-15T03:18:11;12.65;;;10.70;;
42754;SDS011;28407;51.830;5.684;2023-02-15T03:20:15;14.57;;;11.82;;
42754;SDS011;28407;51.830;5.684;2023-02-15T03:22:29;16.67;;;9.63;;
42754;SDS011;28407;51.830;5.684;2023-02-15T03:24:37;15.65;;;12.38;;
42754;SDS011;28407;51.830;5.684;2023-02-15T03:26:46;13.38;;;9.82;;
42754;SDS011;28407;51.830;5.684;2023-02-15T03:28:50;17.08;;;11.50;;
42754;SDS011;28407;51.830;5.684;2023-02-15T03:30:55;15.23;;;10.85;;
42754;SDS011;28407;51.830;5.684;2023-02-15T03:32:58;15.93;;;12.25;;
42754;SDS011;28407;51.830;5.684;2023-02-15T03:35:00;17.33;;;11.30;;
42754;SDS011;28407;51.830;5.684;2023-02-15T03:39:35;17.23;;;12.45;;
42754;SDS011;28407;51.830;5.684;2023-02-15T03:41:49;13.70;;;10.43;;
42754;SDS011;28407;51.830;5.684;2023-02-15T03:44:04;16.35;;;10.95;;
42754;SDS011;28407;51.830;5.684;2023-02-15T03:48:41;16.95;;;12.65;;
42754;SDS011;28407;51.830;5.684;2023-02-15T03:50:46;16.05;;;11.75;;
42754;SDS011;28407;51.830;5.684;2023-02-15T03:53:06;17.55;;;11.13;;
42754;SDS011;28407;51.830;5.684;2023-02-15T03:55:10;15.20;;;10.52;;
42754;SDS011;28407;51.830;5.684;2023-02-15T03:57:12;15.77;;;11.18;;
42754;SDS011;28407;51.830;5.684;2023-02-15T03:59:34;15.38;;;10.98;;
42754;SDS011;28407;51.830;5.684;2023-02-15T04:01:59;16.23;;;11.68;;
42754;SDS011;28407;51.830;5.684;2023-02-15T04:04:07;15.77;;;11.45;;
42754;SDS011;28407;51.830;5.684;2023-02-15T04:06:15;16.90;;;13.30;;
42754;SDS011;28407;51.830;5.684;2023-02-15T04:08:16;15.57;;;11.85;;
42754;SDS011;28407;51.830;5.684;2023-02-15T04:10:17;17.73;;;11.45;;
42754;SDS011;28407;51.830;5.684;2023-02-15T04:12:36;17.73;;;13.95;;
42754;SDS011;28407;51.830;5.684;2023-02-15T04:14:36;15.77;;;11.75;;
42754;SDS011;28407;51.830;5.684;2023-02-15T04:16:56;17.92;;;12.43;;
42754;SDS011;28407;51.830;5.684;2023-02-15T04:18:56;15.60;;;12.52;;
42754;SDS011;28407;51.830;5.684;2023-02-15T04:21:15;20.80;;;13.15;;
42754;SDS011;28407;51.830;5.684;2023-02-15T04:23:35;17.70;;;11.88;;
42754;SDS011;28407;51.830;5.684;2023-02-15T04:25:54;18.63;;;13.23;;
42754;SDS011;28407;51.830;5.684;2023-02-15T04:27:55;17.02;;;11.77;;
42754;SDS011;28407;51.830;5.684;2023-02-15T04:29:55;15.55;;;12.45;;
42754;SDS011;28407;51.830;5.684;2023-02-15T04:31:56;14.82;;;10.65;;
42754;SDS011;28407;51.830;5.684;2023-02-15T04:33:58;16.10;;;11.65;;
42754;SDS011;28407;51.830;5.684;2023-02-15T04:35:58;16.83;;;12.57;;
42754;SDS011;28407;51.830;5.684;2023-02-15T04:37:59;15.30;;;10.80;;
42754;SDS011;28407;51.830;5.684;2023-02-15T04:40:00;17.20;;;11.98;;
42754;SDS011;28407;51.830;5.684;2023-02-15T04:42:00;16.00;;;13.70;;
42754;SDS011;28407;51.830;5.684;2023-02-15T04:44:01;16.50;;;12.13;;
42754;SDS011;28407;51.830;5.684;2023-02-15T04:46:02;13.60;;;10.60;;
42754;SDS011;28407;51.830;5.684;2023-02-15T04:48:02;15.75;;;12.63;;
42754;SDS011;28407;51.830;5.684;2023-02-15T04:50:03;15.50;;;11.73;;
42754;SDS011;28407;51.830;5.684;2023-02-15T04:52:04;18.23;;;12.13;;
42754;SDS011;28407;51.830;5.684;2023-02-15T04:54:04;16.17;;;11.18;;
42754;SDS011;28407;51.830;5.684;2023-02-15T04:56:05;14.38;;;11.60;;
42754;SDS011;28407;51.830;5.684;2023-02-15T04:58:06;14.98;;;11.40;;
42754;SDS011;28407;51.830;5.684;2023-02-15T05:00:06;16.58;;;12.35;;
42754;SDS011;28407;51.830;5.684;2023-02-15T05:02:08;17.38;;;13.98;;
42754;SDS011;28407;51.830;5.684;2023-02-15T05:04:09;17.67;;;12.20;;
42754;SDS011;28407;51.830;5.684;2023-02-15T05:06:10;17.25;;;12.57;;
42754;SDS011;28407;51.830;5.684;2023-02-15T05:08:10;17.10;;;12.52;;
42754;SDS011;28407;51.830;5.684;2023-02-15T05:10:11;17.10;;;12.70;;
42754;SDS011;28407;51.830;5.684;2023-02-15T05:12:11;17.48;;;12.48;;
42754;SDS011;28407;51.830;5.684;2023-02-15T05:14:12;17.00;;;11.52;;
42754;SDS011;28407;51.830;5.684;2023-02-15T05:16:13;16.10;;;13.00;;
42754;SDS011;28407;51.830;5.684;2023-02-15T05:18:13;16.05;;;14.05;;
42754;SDS011;28407;51.830;5.684;2023-02-15T05:20:14;19.40;;;13.13;;
42754;SDS011;28407;51.830;5.684;2023-02-15T05:22:15;22.45;;;14.68;;
42754;SDS011;28407;51.830;5.684;2023-02-15T05:24:15;15.57;;;11.55;;
42754;SDS011;28407;51.830;5.684;2023-02-15T05:26:34;15.50;;;11.57;;
42754;SDS011;28407;51.830;5.684;2023-02-15T05:28:53;17.60;;;12.30;;
42754;SDS011;28407;51.830;5.684;2023-02-15T05:31:00;19.42;;;13.88;;
42754;SDS011;28407;51.830;5.684;2023-02-15T05:33:04;20.02;;;13.77;;
42754;SDS011;28407;51.830;5.684;2023-02-15T05:35:05;19.45;;;13.63;;
42754;SDS011;28407;51.830;5.684;2023-02-15T05:37:07;18.40;;;12.75;;
42754;SDS011;28407;51.830;5.684;2023-02-15T05:39:08;19.02;;;13.90;;
42754;SDS011;28407;51.830;5.684;2023-02-15T05:41:09;17.88;;;12.35;;
42754;SDS011;28407;51.830;5.684;2023-02-15T05:43:10;18.73;;;13.40;;
42754;SDS011;28407;51.830;5.684;2023-02-15T05:45:11;19.50;;;12.45;;
42754;SDS011;28407;51.830;5.684;2023-02-15T05:47:11;19.45;;;13.13;;
42754;SDS011;28407;51.830;5.684;2023-02-15T05:49:12;19.58;;;13.27;;
42754;SDS011;28407;51.830;5.684;2023-02-15T05:51:12;14.45;;;12.10;;
42754;SDS011;28407;51.830;5.684;2023-02-15T05:55:15;19.40;;;13.07;;
42754;SDS011;28407;51.830;5.684;2023-02-15T05:57:16;20.77;;;13.90;;
42754;SDS011;28407;51.830;5.684;2023-02-15T05:59:16;20.88;;;12.07;;
42754;SDS011;28407;51.830;5.684;2023-02-15T06:01:17;17.05;;;14.10;;
42754;SDS011;28407;51.830;5.684;2023-02-15T06:03:21;17.08;;;12.77;;
42754;SDS011;28407;51.830;5.684;2023-02-15T06:05:22;16.58;;;11.95;;
42754;SDS011;28407;51.830;5.684;2023-02-15T06:07:23;17.80;;;12.82;;
42754;SDS011;28407;51.830;5.684;2023-02-15T06:09:23;17.70;;;12.60;;
42754;SDS011;28407;51.830;5.684;2023-02-15T06:11:24;17.20;;;12.77;;
42754;SDS011;28407;51.830;5.684;2023-02-15T06:13:25;18.48;;;13.32;;
42754;SDS011;28407;51.830;5.684;2023-02-15T06:15:25;18.42;;;13.88;;
42754;SDS011;28407;51.830;5.684;2023-02-15T06:17:26;17.70;;;12.38;;
42754;SDS011;28407;51.830;5.684;2023-02-15T06:19:27;17.85;;;12.48;;
42754;SDS011;28407;51.830;5.684;2023-02-15T06:21:28;19.52;;;12.60;;
42754;SDS011;28407;51.830;5.684;2023-02-15T06:23:29;19.58;;;12.73;;
42754;SDS011;28407;51.830;5.684;2023-02-15T06:25:30;18.50;;;12.50;;
42754;SDS011;28407;51.830;5.684;2023-02-15T06:27:30;19.02;;;13.23;;
42754;SDS011;28407;51.830;5.684;2023-02-15T06:29:31;19.27;;;13.00;;
42754;SDS011;28407;51.830;5.684;2023-02-15T06:31:31;16.73;;;12.23;;
42754;SDS011;28407;51.830;5.684;2023-02-15T06:33:32;18.02;;;13.20;;
42754;SDS011;28407;51.830;5.684;2023-02-15T06:35:33;20.20;;;13.52;;
42754;SDS011;28407;51.830;5.684;2023-02-15T06:37:34;19.13;;;13.85;;
42754;SDS011;28407;51.830;5.684;2023-02-15T06:39:35;16.80;;;11.70;;
42754;SDS011;28407;51.830;5.684;2023-02-15T06:41:35;18.38;;;12.40;;
42754;SDS011;28407;51.830;5.684;2023-02-15T06:43:36;20.85;;;14.57;;
42754;SDS011;28407;51.830;5.684;2023-02-15T06:45:36;16.48;;;12.30;;
42754;SDS011;28407;51.830;5.684;2023-02-15T06:47:37;16.92;;;11.30;;
42754;SDS011;28407;51.830;5.684;2023-02-15T06:49:38;16.75;;;11.77;;
42754;SDS011;28407;51.830;5.684;2023-02-15T06:51:38;15.27;;;11.88;;
42754;SDS011;28407;51.830;5.684;2023-02-15T06:53:39;17.10;;;12.75;;
42754;SDS011;28407;51.830;5.684;2023-02-15T06:55:42;16.92;;;11.88;;
42754;SDS011;28407;51.830;5.684;2023-02-15T06:57:43;17.85;;;12.68;;
42754;SDS011;28407;51.830;5.684;2023-02-15T06:59:43;14.60;;;11.98;;
42754;SDS011;28407;51.830;5.684;2023-02-15T07:01:44;16.48;;;11.50;;
42754;SDS011;28407;51.830;5.684;2023-02-15T07:03:45;16.42;;;11.73;;
42754;SDS011;28407;51.830;5.684;2023-02-15T07:05:45;15.38;;;11.02;;
42754;SDS011;28407;51.830;5.684;2023-02-15T07:07:47;18.65;;;12.38;;
42754;SDS011;28407;51.830;5.684;2023-02-15T07:09:48;17.48;;;13.07;;
42754;SDS011;28407;51.830;5.684;2023-02-15T07:11:48;16.45;;;11.80;;
42754;SDS011;28407;51.830;5.684;2023-02-15T07:14:07;15.10;;;11.57;;
42754;SDS011;28407;51.830;5.684;2023-02-15T07:16:08;14.52;;;10.00;;
42754;SDS011;28407;51.830;5.684;2023-02-15T07:18:09;19.67;;;12.15;;
42754;SDS011;28407;51.830;5.684;2023-02-15T07:20:12;16.70;;;11.52;;
42754;SDS011;28407;51.830;5.684;2023-02-15T07:22:14;14.98;;;10.93;;
42754;SDS011;28407;51.830;5.684;2023-02-15T07:24:15;15.20;;;12.07;;
42754;SDS011;28407;51.830;5.684;2023-02-15T07:26:15;13.95;;;9.85;;
42754;SDS011;28407;51.830;5.684;2023-02-15T07:28:16;15.00;;;11.55;;
42754;SDS011;28407;51.830;5.684;2023-02-15T07:30:17;15.23;;;10.38;;
42754;SDS011;28407;51.830;5.684;2023-02-15T07:32:17;17.15;;;11.35;;
42754;SDS011;28407;51.830;5.684;2023-02-15T07:34:18;17.25;;;12.50;;
42754;SDS011;28407;51.830;5.684;2023-02-15T07:36:18;16.02;;;11.80;;
42754;SDS011;28407;51.830;5.684;2023-02-15T07:38:19;15.73;;;10.52;;
42754;SDS011;28407;51.830;5.684;2023-02-15T07:40:20;15.98;;;11.25;;
42754;SDS011;28407;51.830;5.684;2023-02-15T07:42:23;17.88;;;11.93;;
42754;SDS011;28407;51.830;5.684;2023-02-15T07:44:25;18.38;;;12.77;;
42754;SDS011;28407;51.830;5.684;2023-02-15T07:46:25;14.05;;;11.20;;
42754;SDS011;28407;51.830;5.684;2023-02-15T07:48:26;15.93;;;11.25;;
42754;SDS011;28407;51.830;5.684;2023-02-15T07:50:27;15.30;;;11.30;;
42754;SDS011;28407;51.830;5.684;2023-02-15T07:52:27;18.63;;;13.52;;
42754;SDS011;28407;51.830;5.684;2023-02-15T07:54:28;16.23;;;13.48;;
42754;SDS011;28407;51.830;5.684;2023-02-15T07:56:29;17.70;;;12.57;;
42754;SDS011;28407;51.830;5.684;2023-02-15T07:58:29;16.67;;;11.93;;
42754;SDS011;28407;51.830;5.684;2023-02-15T08:00:49;14.73;;;11.63;;
42754;SDS011;28407;51.830;5.684;2023-02-15T08:03:01;15.32;;;11.25;;
42754;SDS011;28407;51.830;5.684;2023-02-15T08:05:13;15.93;;;12.82;;
42754;SDS011;28407;51.830;5.684;2023-02-15T08:07:14;16.35;;;12.45;;
42754;SDS011;28407;51.830;5.684;2023-02-15T08:09:15;19.50;;;13.10;;
42754;SDS011;28407;51.830;5.684;2023-02-15T08:11:20;16.63;;;12.35;;
42754;SDS011;28407;51.830;5.684;2023-02-15T08:13:29;17.55;;;12.57;;
42754;SDS011;28407;51.830;5.684;2023-02-15T08:15:29;18.17;;;13.05;;
42754;SDS011;28407;51.830;5.684;2023-02-15T08:17:30;15.82;;;11.95;;
42754;SDS011;28407;51.830;5.684;2023-02-15T08:19:31;15.88;;;11.60;;
42754;SDS011;28407;51.830;5.684;2023-02-15T08:21:32;15.15;;;11.85;;
42754;SDS011;28407;51.830;5.684;2023-02-15T08:23:34;17.83;;;13.07;;
42754;SDS011;28407;51.830;5.684;2023-02-15T08:25:34;18.23;;;13.68;;
42754;SDS011;28407;51.830;5.684;2023-02-15T08:27:35;21.70;;;13.13;;
42754;SDS011;28407;51.830;5.684;2023-02-15T08:29:36;19.92;;;13.38;;
42754;SDS011;28407;51.830;5.684;2023-02-15T08:31:37;18.58;;;14.27;;
42754;SDS011;28407;51.830;5.684;2023-02-15T08:33:41;19.38;;;13.80;;
42754;SDS011;28407;51.830;5.684;2023-02-15T08:35:43;18.48;;;13.85;;
42754;SDS011;28407;51.830;5.684;2023-02-15T08:37:43;17.35;;;13.50;;
42754;SDS011;28407;51.830;5.684;2023-02-15T08:39:45;21.65;;;13.88;;
42754;SDS011;28407;51.830;5.684;2023-02-15T08:41:46;17.33;;;13.52;;
42754;SDS011;28407;51.830;5.684;2023-02-15T08:43:49;19.33;;;13.85;;
42754;SDS011;28407;51.830;5.684;2023-02-15T08:45:52;18.02;;;13.85;;
42754;SDS011;28407;51.830;5.684;2023-02-15T08:47:52;18.83;;;14.45;;
42754;SDS011;28407;51.830;5.684;2023-02-15T08:49:53;13.40;;;9.95;;
42754;SDS011;28407;51.830;5.684;2023-02-15T08:51:54;15.95;;;12.45;;
42754;SDS011;28407;51.830;5.684;2023-02-15T08:53:55;17.98;;;13.68;;
42754;SDS011;28407;51.830;5.684;2023-02-15T08:55:58;18.42;;;14.30;;
42754;SDS011;28407;51.830;5.684;2023-02-15T08:57:59;18.50;;;13.73;;
42754;SDS011;28407;51.830;5.684;2023-02-15T09:00:00;17.45;;;13.48;;
42754;SDS011;28407;51.830;5.684;2023-02-15T09:02:02;20.27;;;13.48;;
42754;SDS011;28407;51.830;5.684;2023-02-15T09:04:06;21.40;;;14.27;;
42754;SDS011;28407;51.830;5.684;2023-02-15T09:06:08;19.05;;;12.82;;
42754;SDS011;28407;51.830;5.684;2023-02-15T09:08:09;19.42;;;15.05;;
42754;SDS011;28407;51.830;5.684;2023-02-15T09:10:09;20.17;;;13.95;;
42754;SDS011;28407;51.830;5.684;2023-02-15T09:12:10;20.38;;;13.68;;
42754;SDS011;28407;51.830;5.684;2023-02-15T09:14:12;20.02;;;13.77;;
42754;SDS011;28407;51.830;5.684;2023-02-15T09:16:14;22.45;;;14.93;;
42754;SDS011;28407;51.830;5.684;2023-02-15T09:18:16;18.80;;;13.07;;
42754;SDS011;28407;51.830;5.684;2023-02-15T09:20:17;17.77;;;13.50;;
42754;SDS011;28407;51.830;5.684;2023-02-15T09:22:17;20.70;;;14.07;;
42754;SDS011;28407;51.830;5.684;2023-02-15T09:24:18;22.55;;;16.42;;
42754;SDS011;28407;51.830;5.684;2023-02-15T09:26:19;20.25;;;15.38;;
42754;SDS011;28407;51.830;5.684;2023-02-15T09:28:21;21.02;;;14.35;;
42754;SDS011;28407;51.830;5.684;2023-02-15T09:30:22;23.50;;;17.25;;
42754;SDS011;28407;51.830;5.684;2023-02-15T09:32:23;24.95;;;18.08;;
42754;SDS011;28407;51.830;5.684;2023-02-15T09:34:23;23.08;;;16.63;;
42754;SDS011;28407;51.830;5.684;2023-02-15T09:36:26;21.77;;;16.67;;
42754;SDS011;28407;51.830;5.684;2023-02-15T09:38:28;20.48;;;15.15;;
42754;SDS011;28407;51.830;5.684;2023-02-15T09:40:31;18.48;;;14.63;;
42754;SDS011;28407;51.830;5.684;2023-02-15T09:44:59;21.52;;;16.05;;
42754;SDS011;28407;51.830;5.684;2023-02-15T09:54:56;25.23;;;17.33;;
42754;SDS011;28407;51.830;5.684;2023-02-15T09:56:45;22.73;;;15.93;;
42754;SDS011;28407;51.830;5.684;2023-02-15T09:58:55;23.25;;;16.35;;
42754;SDS011;28407;51.830;5.684;2023-02-15T10:03:21;20.92;;;15.45;;
42754;SDS011;28407;51.830;5.684;2023-02-15T10:14:54;25.20;;;18.08;;
42754;SDS011;28407;51.830;5.684;2023-02-15T10:17:10;24.92;;;17.70;;
42754;SDS011;28407;51.830;5.684;2023-02-15T10:19:43;25.20;;;18.30;;
42754;SDS011;28407;51.830;5.684;2023-02-15T10:26:22;27.60;;;18.98;;
42754;SDS011;28407;51.830;5.684;2023-02-15T10:36:11;25.60;;;18.63;;
42754;SDS011;28407;51.830;5.684;2023-02-15T10:38:28;29.30;;;18.00;;
42754;SDS011;28407;51.830;5.684;2023-02-15T10:40:44;23.73;;;16.35;;
42754;SDS011;28407;51.830;5.684;2023-02-15T10:47:12;28.08;;;20.45;;
42754;SDS011;28407;51.830;5.684;2023-02-15T10:54:04;26.60;;;17.40;;
42754;SDS011;28407;51.830;5.684;2023-02-15T10:56:27;27.95;;;18.65;;
42754;SDS011;28407;51.830;5.684;2023-02-15T11:08:14;27.50;;;18.10;;
42754;SDS011;28407;51.830;5.684;2023-02-15T11:12:47;24.73;;;18.30;;
42754;SDS011;28407;51.830;5.684;2023-02-15T11:15:00;24.77;;;18.92;;
42754;SDS011;28407;51.830;5.684;2023-02-15T11:17:11;23.52;;;18.02;;
42754;SDS011;28407;51.830;5.684;2023-02-15T11:19:26;23.50;;;17.60;;
42754;SDS011;28407;51.830;5.684;2023-02-15T11:21:33;24.95;;;17.67;;
42754;SDS011;28407;51.830;5.684;2023-02-15T11:23:40;23.60;;;17.55;;
42754;SDS011;28407;51.830;5.684;2023-02-15T11:25:45;24.52;;;17.52;;
42754;SDS011;28407;51.830;5.684;2023-02-15T11:27:48;26.08;;;17.98;;
42754;SDS011;28407;51.830;5.684;2023-02-15T11:29:52;20.93;;;15.53;;
42754;SDS011;28407;51.830;5.684;2023-02-15T11:34:21;23.25;;;17.50;;
42754;SDS011;28407;51.830;5.684;2023-02-15T11:36:32;24.77;;;17.98;;
42754;SDS011;28407;51.830;5.684;2023-02-15T11:38:37;19.85;;;15.65;;
42754;SDS011;28407;51.830;5.684;2023-02-15T11:40:45;28.08;;;18.83;;
42754;SDS011;28407;51.830;5.684;2023-02-15T11:42:52;25.98;;;17.13;;
42754;SDS011;28407;51.830;5.684;2023-02-15T11:44:59;24.48;;;17.45;;
42754;SDS011;28407;51.830;5.684;2023-02-15T11:47:10;24.05;;;16.15;;
42754;SDS011;28407;51.830;5.684;2023-02-15T11:51:29;24.58;;;17.13;;
42754;SDS011;28407;51.830;5.684;2023-02-15T11:53:33;24.40;;;16.85;;
42754;SDS011;28407;51.830;5.684;2023-02-15T11:55:37;24.35;;;16.98;;
42754;SDS011;28407;51.830;5.684;2023-02-15T11:57:39;26.75;;;19.17;;
42754;SDS011;28407;51.830;5.684;2023-02-15T11:59:49;25.92;;;17.88;;
42754;SDS011;28407;51.830;5.684;2023-02-15T12:01:56;25.27;;;16.45;;
42754;SDS011;28407;51.830;5.684;2023-02-15T12:03:58;23.02;;;15.85;;
42754;SDS011;28407;51.830;5.684;2023-02-15T12:06:04;22.05;;;15.90;;
42754;SDS011;28407;51.830;5.684;2023-02-15T12:08:10;23.48;;;18.48;;
42754;SDS011;28407;51.830;5.684;2023-02-15T12:10:26;23.73;;;17.48;;
42754;SDS011;28407;51.830;5.684;2023-02-15T12:12:32;28.70;;;17.88;;
42754;SDS011;28407;51.830;5.684;2023-02-15T12:14:46;22.55;;;15.77;;
42754;SDS011;28407;51.830;5.684;2023-02-15T12:16:49;23.90;;;16.40;;
42754;SDS011;28407;51.830;5.684;2023-02-15T12:18:52;25.48;;;17.67;;
42754;SDS011;28407;51.830;5.684;2023-02-15T12:20:58;23.83;;;16.48;;
42754;SDS011;28407;51.830;5.684;2023-02-15T12:23:03;26.58;;;19.02;;
42754;SDS011;28407;51.830;5.684;2023-02-15T12:25:21;23.65;;;16.30;;
42754;SDS011;28407;51.830;5.684;2023-02-15T12:27:29;22.02;;;15.77;;
42754;SDS011;28407;51.830;5.684;2023-02-15T12:29:38;21.83;;;15.38;;
42754;SDS011;28407;51.830;5.684;2023-02-15T12:31:44;26.92;;;17.70;;
42754;SDS011;28407;51.830;5.684;2023-02-15T12:33:46;23.70;;;15.50;;
42754;SDS011;28407;51.830;5.684;2023-02-15T12:35:47;25.90;;;18.67;;
42754;SDS011;28407;51.830;5.684;2023-02-15T12:37:56;21.98;;;16.25;;
42754;SDS011;28407;51.830;5.684;2023-02-15T12:40:03;21.02;;;15.75;;
42754;SDS011;28407;51.830;5.684;2023-02-15T12:42:19;23.05;;;16.17;;
42754;SDS011;28407;51.830;5.684;2023-02-15T12:46:26;20.52;;;15.55;;
42754;SDS011;28407;51.830;5.684;2023-02-15T12:48:26;22.17;;;15.35;;
42754;SDS011;28407;51.830;5.684;2023-02-15T12:50:27;20.15;;;15.18;;
42754;SDS011;28407;51.830;5.684;2023-02-15T12:52:31;21.05;;;15.13;;
42754;SDS011;28407;51.830;5.684;2023-02-15T12:54:39;20.92;;;15.55;;
42754;SDS011;28407;51.830;5.684;2023-02-15T12:56:41;22.48;;;16.27;;
42754;SDS011;28407;51.830;5.684;2023-02-15T12:58:42;24.02;;;17.23;;
42754;SDS011;28407;51.830;5.684;2023-02-15T13:00:42;22.80;;;16.55;;
42754;SDS011;28407;51.830;5.684;2023-02-15T13:02:47;23.40;;;16.25;;
42754;SDS011;28407;51.830;5.684;2023-02-15T13:04:51;21.35;;;14.60;;
42754;SDS011;28407;51.830;5.684;2023-02-15T13:07:00;23.83;;;16.90;;
42754;SDS011;28407;51.830;5.684;2023-02-15T13:09:18;26.20;;;16.42;;
42754;SDS011;28407;51.830;5.684;2023-02-15T13:11:27;23.77;;;16.88;;
42754;SDS011;28407;51.830;5.684;2023-02-15T13:13:35;22.90;;;15.13;;
42754;SDS011;28407;51.830;5.684;2023-02-15T13:16:06;19.85;;;13.90;;
42754;SDS011;28407;51.830;5.684;2023-02-15T13:18:32;24.60;;;16.20;;
42754;SDS011;28407;51.830;5.684;2023-02-15T13:20:35;25.05;;;15.48;;
42754;SDS011;28407;51.830;5.684;2023-02-15T13:22:41;24.25;;;14.27;;
42754;SDS011;28407;51.830;5.684;2023-02-15T13:25:01;19.65;;;14.52;;
42754;SDS011;28407;51.830;5.684;2023-02-15T13:27:12;20.73;;;15.52;;
42754;SDS011;28407;51.830;5.684;2023-02-15T13:29:30;19.20;;;14.40;;
42754;SDS011;28407;51.830;5.684;2023-02-15T13:31:34;23.27;;;15.43;;
42754;SDS011;28407;51.830;5.684;2023-02-15T13:33:36;25.10;;;15.98;;
42754;SDS011;28407;51.830;5.684;2023-02-15T13:35:41;21.13;;;16.30;;
42754;SDS011;28407;51.830;5.684;2023-02-15T13:42:40;20.55;;;14.88;;
42754;SDS011;28407;51.830;5.684;2023-02-15T13:44:54;20.48;;;15.18;;